createdAt,value
2019-01-23T00:00:32.560Z,101022.86
2019-01-23T00:03:01.916Z,101024.73
2019-01-23T00:05:31.022Z,101021.23
2019-01-23T00:08:00.127Z,101021.57
2019-01-23T00:10:29.322Z,101022.83
2019-01-23T00:12:58.501Z,101018.67
2019-01-23T00:15:27.617Z,101017.97
2019-01-23T00:17:56.762Z,101017.97
2019-01-23T00:20:25.938Z,101010.06
2019-01-23T00:22:55.038Z,101013.08
2019-01-23T00:25:24.192Z,101020.36
2019-01-23T00:27:53.345Z,101014.34
2019-01-23T00:30:22.475Z,101008.62
2019-01-23T00:32:51.535Z,101001.88
2019-01-23T00:35:20.671Z,101003.73
2019-01-23T00:37:49.821Z,100998.66
2019-01-23T00:40:18.923Z,101003.95
2019-01-23T00:42:48.087Z,101002.19
2019-01-23T00:45:17.199Z,100997.19
2019-01-23T00:47:46.293Z,100995.73
2019-01-23T00:50:15.461Z,100999.56
2019-01-23T00:52:44.618Z,100997.49
2019-01-23T00:55:14.479Z,100996.16
2019-01-23T00:57:43.617Z,101003.97
2019-01-23T01:00:21.564Z,100998.33
2019-01-23T01:02:50.618Z,100998.55
2019-01-23T01:05:19.979Z,100992.72
2019-01-23T01:07:49.142Z,100991.06
2019-01-23T01:10:18.710Z,100988.44
2019-01-23T01:12:47.825Z,100986.90
2019-01-23T01:15:17.309Z,100990.41
2019-01-23T01:17:46.471Z,100988.36
2019-01-23T01:20:15.600Z,100988.13
2019-01-23T01:22:44.807Z,100991.16
2019-01-23T01:25:15.514Z,100990.52
2019-01-23T01:27:44.635Z,100984.78
2019-01-23T01:30:16.213Z,100987.67
2019-01-23T01:32:45.434Z,100985.78
2019-01-23T01:35:14.547Z,100981.77
2019-01-23T01:37:43.619Z,100982.67
2019-01-23T01:40:13.359Z,100983.08
2019-01-23T01:42:42.441Z,100983.45
2019-01-23T01:45:12.271Z,100982.90
2019-01-23T01:47:41.428Z,100980.02
2019-01-23T01:50:13.201Z,100980.66
2019-01-23T01:52:42.326Z,100980.16
2019-01-23T01:55:11.459Z,100977.77
2019-01-23T01:57:40.614Z,100973.52
2019-01-23T02:00:18.138Z,100975.89
2019-01-23T02:02:47.234Z,100973.38
2019-01-23T02:05:16.446Z,100974.23
2019-01-23T02:07:46.116Z,100973.98
2019-01-23T02:10:17.093Z,100973.28
2019-01-23T02:12:46.174Z,100963.77
2019-01-23T02:15:15.414Z,100973.44
2019-01-23T02:17:44.570Z,100968.37
2019-01-23T02:20:16.500Z,100971.31
2019-01-23T02:22:45.630Z,100966.09
2019-01-23T02:25:14.804Z,100967.84
2019-01-23T02:27:44.556Z,100970.21
2019-01-23T02:30:14.860Z,100967.60
2019-01-23T02:32:44.008Z,100962.02
2019-01-23T02:35:13.133Z,100960.45
2019-01-23T02:37:42.348Z,100966.38
2019-01-23T02:40:16.637Z,100958.81
2019-01-23T02:42:45.731Z,100962.13
2019-01-23T02:45:14.915Z,100960.75
2019-01-23T02:47:44.077Z,100959.42
2019-01-23T02:50:14.890Z,100957.25
2019-01-23T02:52:43.991Z,100964.41
2019-01-23T02:55:13.198Z,100959.89
2019-01-23T02:57:42.440Z,100950.44
2019-01-23T03:00:13.584Z,100952.80
2019-01-23T03:02:42.877Z,100958.39
2019-01-23T03:05:13.925Z,100957.06
2019-01-23T03:07:43.058Z,100954.86
2019-01-23T03:10:13.584Z,100952.13
2019-01-23T03:12:42.677Z,100953.48
2019-01-23T03:15:12.196Z,100958.36
2019-01-23T03:17:41.475Z,100954.21
2019-01-23T03:20:12.143Z,100954.55
2019-01-23T03:22:41.289Z,100956.17
2019-01-23T03:25:11.056Z,100946.19
2019-01-23T03:27:40.190Z,100960.95
2019-01-23T03:30:14.941Z,100958.04
2019-01-23T03:32:44.349Z,100957.02
2019-01-23T03:35:13.542Z,100956.81
2019-01-23T03:37:42.669Z,100952.55
2019-01-23T03:40:13.818Z,100955.75
2019-01-23T03:42:42.902Z,100951.70
2019-01-23T03:45:12.732Z,100957.73
2019-01-23T03:47:41.933Z,100946.39
2019-01-23T03:50:12.749Z,100949.53
2019-01-23T03:52:41.874Z,100946.20
2019-01-23T03:55:11.112Z,100948.17
2019-01-23T03:57:40.267Z,100942.97
2019-01-23T04:00:12.221Z,100947.44
2019-01-23T04:02:41.353Z,100948.59
2019-01-23T04:05:10.645Z,100941.19
2019-01-23T04:07:39.889Z,100944.53
2019-01-23T04:10:11.138Z,100939.22
2019-01-23T04:12:40.278Z,100947.12
2019-01-23T04:15:10.120Z,100952.03
2019-01-23T04:17:39.217Z,100948.69
2019-01-23T04:20:14.154Z,100945.87
2019-01-23T04:22:43.255Z,100947.74
2019-01-23T04:25:12.517Z,100950.46
2019-01-23T04:27:41.684Z,100948.57
2019-01-23T04:30:13.356Z,100952.13
2019-01-23T04:32:42.438Z,100951.29
2019-01-23T04:35:11.586Z,100947.22
2019-01-23T04:37:40.745Z,100950.67
2019-01-23T04:40:10.111Z,100939.32
2019-01-23T04:42:39.244Z,100949.94
2019-01-23T04:45:09.833Z,100948.47
2019-01-23T04:47:38.989Z,100951.17
2019-01-23T04:50:09.246Z,100948.47
2019-01-23T04:53:00.112Z,100946.61
2019-01-23T04:55:29.221Z,100953.96
2019-01-23T04:57:58.392Z,100948.67
2019-01-23T05:00:28.322Z,100951.58
2019-01-23T05:02:57.433Z,100945.14
2019-01-23T05:05:26.572Z,100954.17
2019-01-23T05:07:55.647Z,100955.92
2019-01-23T05:10:24.769Z,100956.94
2019-01-23T05:12:53.886Z,100957.95
2019-01-23T05:15:23.005Z,100955.23
2019-01-23T05:17:52.126Z,100960.45
2019-01-23T05:20:21.504Z,100952.36
2019-01-23T05:22:50.591Z,100959.15
2019-01-23T05:25:19.759Z,100964.45
2019-01-23T05:27:48.897Z,100959.17
2019-01-23T05:30:20.612Z,100959.28
2019-01-23T05:32:49.696Z,100960.70
2019-01-23T05:35:18.889Z,100962.89
2019-01-23T05:37:48.018Z,100966.23
2019-01-23T05:40:17.116Z,100972.10
2019-01-23T05:42:46.240Z,100972.41
2019-01-23T05:45:15.323Z,100973.96
2019-01-23T05:47:44.440Z,100969.27
2019-01-23T05:50:14.618Z,100970.52
2019-01-23T05:52:43.794Z,100969.17
2019-01-23T05:55:13.409Z,100967.30
2019-01-23T05:57:42.488Z,100968.98
2019-01-23T06:00:14.396Z,100966.47
2019-01-23T06:02:43.522Z,100970.65
2019-01-23T06:05:12.727Z,100965.55
2019-01-23T06:07:41.824Z,100973.36
2019-01-23T06:10:11.310Z,100972.72
2019-01-23T06:12:40.474Z,100981.59
2019-01-23T06:15:10.239Z,100978.97
2019-01-23T06:17:39.353Z,100980.52
2019-01-23T06:20:10.592Z,100983.98
2019-01-23T06:22:39.922Z,100989.48
2019-01-23T06:25:09.037Z,100993.66
2019-01-23T06:27:38.106Z,100995.84
2019-01-23T06:30:10.710Z,100992.20
2019-01-23T06:32:40.748Z,100989.38
2019-01-23T06:35:09.863Z,100999.48
2019-01-23T06:37:38.982Z,100998.94
2019-01-23T06:40:09.274Z,101004.55
2019-01-23T06:42:38.357Z,101010.80
2019-01-23T06:45:09.100Z,101009.09
2019-01-23T06:47:38.245Z,101004.52
2019-01-23T06:50:09.758Z,101008.21
2019-01-23T06:52:38.825Z,101009.52
2019-01-23T06:55:08.332Z,101015.02
2019-01-23T06:57:37.623Z,101022.91
2019-01-23T07:00:09.011Z,101021.95
2019-01-23T07:02:38.160Z,101023.70
2019-01-23T07:05:07.662Z,101028.53
2019-01-23T07:07:36.795Z,101035.05
2019-01-23T07:10:08.285Z,101034.45
2019-01-23T07:12:37.458Z,101034.07
2019-01-23T07:15:07.434Z,101036.16
2019-01-23T07:17:36.535Z,101035.20
2019-01-23T07:20:06.632Z,101039.03
2019-01-23T07:22:35.755Z,101040.02
2019-01-23T07:25:05.541Z,101037.58
2019-01-23T07:27:34.642Z,101043.55
2019-01-23T07:30:03.879Z,101047.37
2019-01-23T07:32:33.011Z,101052.62
2019-01-23T07:35:02.108Z,101048.22
2019-01-23T07:37:31.205Z,101058.41
2019-01-23T07:40:00.339Z,101055.34
2019-01-23T07:42:29.449Z,101055.70
2019-01-23T07:44:58.609Z,101051.10
2019-01-23T07:47:27.717Z,101057.41
2019-01-23T07:49:56.826Z,101058.93
2019-01-23T07:52:25.917Z,101061.14
2019-01-23T07:54:55.018Z,101067.97
2019-01-23T07:57:24.173Z,101060.02
2019-01-23T07:59:53.264Z,101068.38
2019-01-23T08:02:22.436Z,101065.88
2019-01-23T08:04:51.536Z,101069.41
2019-01-23T08:07:20.584Z,101070.03
2019-01-23T08:09:49.728Z,101071.20
2019-01-23T08:12:18.862Z,101074.39
2019-01-23T08:14:47.941Z,101076.45
2019-01-23T08:17:17.134Z,101073.12
2019-01-23T08:19:46.258Z,101070.95
2019-01-23T08:22:15.333Z,101075.31
2019-01-23T08:24:44.461Z,101070.21
2019-01-23T08:27:13.824Z,101069.94
2019-01-23T08:29:42.887Z,101075.16
2019-01-23T08:32:11.960Z,101071.36
2019-01-23T08:34:41.100Z,101077.41
2019-01-23T08:37:10.257Z,101075.45
2019-01-23T08:39:39.321Z,101073.38
2019-01-23T08:42:08.456Z,101080.89
2019-01-23T08:44:37.633Z,101084.00
2019-01-23T08:47:06.789Z,101088.70
2019-01-23T08:49:35.888Z,101084.23
2019-01-23T08:52:04.983Z,101087.88
2019-01-23T08:54:34.141Z,101093.92
2019-01-23T08:57:03.291Z,101091.53
2019-01-23T08:59:32.382Z,101093.72
2019-01-23T09:02:01.526Z,101091.53
2019-01-23T09:04:30.608Z,101087.58
2019-01-23T09:06:59.707Z,101095.58
2019-01-23T09:09:28.837Z,101097.48
2019-01-23T09:11:58.014Z,101105.78
2019-01-23T09:14:27.089Z,101102.89
2019-01-23T09:16:56.152Z,101099.55
2019-01-23T09:19:25.308Z,101102.56
2019-01-23T09:21:54.385Z,101103.92
2019-01-23T09:24:23.515Z,101102.98
2019-01-23T09:26:52.660Z,101096.81
2019-01-23T09:29:22.000Z,101105.47
2019-01-23T09:32:11.895Z,101109.50
2019-01-23T09:35:01.850Z,101106.91
2019-01-23T09:37:59.078Z,101105.55
2019-01-23T09:40:58.903Z,101116.09
2019-01-23T09:44:03.205Z,101110.94
2019-01-23T09:46:56.022Z,101111.68
2019-01-23T09:50:06.124Z,101105.81
2019-01-23T09:53:06.939Z,101111.95
2019-01-23T09:55:36.070Z,101110.92
2019-01-23T09:58:09.783Z,101103.97
2019-01-23T10:00:38.918Z,101104.55
2019-01-23T10:03:08.017Z,101106.44
2019-01-23T10:05:37.156Z,101108.27
2019-01-23T10:08:06.677Z,101108.11
2019-01-23T10:10:35.773Z,101106.22
2019-01-23T10:13:04.939Z,101104.42
2019-01-23T10:15:41.574Z,101104.78
2019-01-23T10:18:10.659Z,101107.63
2019-01-23T10:20:40.023Z,101105.13
2019-01-23T10:23:09.168Z,101106.81
2019-01-23T10:25:38.218Z,101105.31
2019-01-23T10:28:07.341Z,101105.39
2019-01-23T10:30:36.891Z,101103.96
2019-01-23T10:33:06.136Z,101112.80
2019-01-23T10:35:35.266Z,101107.56
2019-01-23T10:38:05.343Z,101108.28
2019-01-23T10:40:34.461Z,101108.15
2019-01-23T10:43:03.519Z,101105.17
2019-01-23T10:45:32.564Z,101112.36
2019-01-23T10:48:01.648Z,101110.87
2019-01-23T10:50:30.652Z,101114.89
2019-01-23T10:52:59.696Z,101115.26
2019-01-23T10:55:28.752Z,101114.19
2019-01-23T10:57:57.802Z,101108.34
2019-01-23T11:00:26.864Z,101109.81
2019-01-23T11:02:55.846Z,101108.43
2019-01-23T11:05:25.026Z,101106.84
2019-01-23T11:07:54.145Z,101107.62
2019-01-23T11:10:23.710Z,101107.23
2019-01-23T11:12:52.808Z,101112.53
2019-01-23T11:15:21.905Z,101104.55
2019-01-23T11:17:51.073Z,101112.11
2019-01-23T11:20:20.378Z,101108.34
2019-01-23T11:22:49.466Z,101106.19
2019-01-23T11:25:18.621Z,101106.62
2019-01-23T11:27:47.717Z,101104.94
2019-01-23T11:30:19.433Z,101104.98
2019-01-23T11:32:48.558Z,101105.88
2019-01-23T11:35:17.761Z,101107.96
2019-01-23T11:37:46.938Z,101104.73
2019-01-23T11:40:18.686Z,101100.68
2019-01-23T11:42:47.824Z,101105.50
2019-01-23T11:45:17.026Z,101100.10
2019-01-23T11:47:46.146Z,101096.00
2019-01-23T11:50:21.836Z,101102.80
2019-01-23T11:52:46.223Z,101097.59
2019-01-23T11:55:15.407Z,101101.87
2019-01-23T11:57:44.516Z,101110.09
2019-01-23T12:00:18.385Z,101110.31
2019-01-23T12:02:47.608Z,101106.58
2019-01-23T12:05:18.323Z,101107.36
2019-01-23T12:07:47.469Z,101102.47
2019-01-23T12:10:18.399Z,101101.30
2019-01-23T12:12:47.514Z,101108.39
2019-01-23T12:15:18.627Z,101103.67
2019-01-23T12:17:47.766Z,101106.50
2019-01-23T12:20:16.915Z,101107.66
2019-01-23T12:22:46.033Z,101106.44
2019-01-23T12:25:15.542Z,101107.38
2019-01-23T12:27:44.671Z,101110.17
2019-01-23T12:30:19.663Z,101110.34
2019-01-23T12:32:48.998Z,101105.52
2019-01-23T12:35:18.234Z,101111.58
2019-01-23T12:37:47.389Z,101121.61
2019-01-23T12:40:18.505Z,101116.72
2019-01-23T12:42:47.709Z,101112.98
2019-01-23T12:45:21.661Z,101113.41
2019-01-23T12:47:50.761Z,101113.82
2019-01-23T12:50:22.355Z,101107.57
2019-01-23T12:52:51.536Z,101110.29
2019-01-23T12:55:20.666Z,101113.83
2019-01-23T12:57:49.770Z,101114.88
2019-01-23T13:00:24.012Z,101110.41
2019-01-23T13:02:53.146Z,101104.68
2019-01-23T13:05:22.276Z,101107.91
2019-01-23T13:07:51.581Z,101105.40
2019-01-23T13:10:20.989Z,101103.44
2019-01-23T13:12:50.088Z,101106.98
2019-01-23T13:15:21.148Z,101103.33
2019-01-23T13:17:50.263Z,101100.84
2019-01-23T13:20:19.869Z,101109.09
2019-01-23T13:22:48.971Z,101111.58
2019-01-23T13:25:19.920Z,101102.42
2019-01-23T13:27:49.014Z,101110.44
2019-01-23T13:30:20.104Z,101109.69
2019-01-23T13:32:49.281Z,101115.94
2019-01-23T13:35:21.017Z,101113.05
2019-01-23T13:37:50.086Z,101106.91
2019-01-23T13:40:21.669Z,101102.42
2019-01-23T13:42:50.845Z,101116.92
2019-01-23T13:45:19.983Z,101114.52
2019-01-23T13:47:49.234Z,101126.19
2019-01-23T13:50:18.401Z,101123.17
2019-01-23T13:52:47.517Z,101132.24
2019-01-23T13:55:17.605Z,101129.64
2019-01-23T13:57:46.788Z,101122.45
2019-01-23T14:00:19.340Z,101131.95
2019-01-23T14:02:48.418Z,101129.33
2019-01-23T14:05:17.639Z,101133.83
2019-01-23T14:07:46.836Z,101135.30
2019-01-23T14:10:16.416Z,101130.49
2019-01-23T14:12:45.496Z,101133.92
2019-01-23T14:15:20.697Z,101135.91
2019-01-23T14:17:49.847Z,101142.46
2019-01-23T14:20:19.014Z,101136.66
2019-01-23T14:22:48.175Z,101136.77
2019-01-23T14:25:17.419Z,101136.64
2019-01-23T14:27:46.546Z,101135.69
2019-01-23T14:30:33.029Z,101134.13
2019-01-23T14:33:02.189Z,101138.20
2019-01-23T14:35:32.345Z,101133.39
2019-01-23T14:38:01.505Z,101138.30
2019-01-23T14:40:30.630Z,101135.06
2019-01-23T14:42:59.839Z,101138.52
2019-01-23T14:45:28.936Z,101135.28
2019-01-23T14:47:58.054Z,101138.58
2019-01-23T14:50:27.199Z,101138.58
2019-01-23T14:52:56.272Z,101139.02
2019-01-23T14:55:25.399Z,101141.48
2019-01-23T14:57:54.539Z,101144.01
2019-01-23T15:00:25.580Z,101146.17
2019-01-23T15:02:54.684Z,101148.45
2019-01-23T15:05:23.813Z,101156.27
2019-01-23T15:07:52.911Z,101150.45
2019-01-23T15:10:26.758Z,101149.19
2019-01-23T15:12:55.997Z,101149.62
2019-01-23T15:15:25.130Z,101156.69
2019-01-23T15:17:54.406Z,101160.25
2019-01-23T15:20:25.841Z,101161.70
2019-01-23T15:22:54.971Z,101164.48
2019-01-23T15:25:24.151Z,101167.80
2019-01-23T15:27:53.250Z,101167.30
2019-01-23T15:30:22.383Z,101171.89
2019-01-23T15:32:52.378Z,101167.92
2019-01-23T15:35:21.549Z,101173.52
2019-01-23T15:37:50.776Z,101168.51
2019-01-23T15:40:25.112Z,101166.20
2019-01-23T15:42:54.294Z,101172.26
2019-01-23T15:45:23.424Z,101166.41
2019-01-23T15:47:52.578Z,101163.86
2019-01-23T15:50:23.107Z,101169.06
2019-01-23T15:52:52.193Z,101172.59
2019-01-23T15:55:22.439Z,101173.73
2019-01-23T15:57:51.560Z,101182.90
2019-01-23T16:00:25.478Z,101178.31
2019-01-23T16:02:54.630Z,101180.77
2019-01-23T16:05:26.105Z,101177.85
2019-01-23T16:07:55.302Z,101178.28
2019-01-23T16:10:25.889Z,101182.31
2019-01-23T16:12:55.040Z,101172.75
2019-01-23T16:15:25.326Z,101185.87
2019-01-23T16:17:54.456Z,101181.20
2019-01-23T16:20:23.519Z,101184.84
2019-01-23T16:22:52.712Z,101190.25
2019-01-23T16:25:21.837Z,101187.88
2019-01-23T16:27:50.973Z,101192.13
2019-01-23T16:30:37.211Z,101192.52
2019-01-23T16:33:06.511Z,101195.44
2019-01-23T16:35:38.786Z,101196.88
2019-01-23T16:38:07.928Z,101194.39
2019-01-23T16:40:37.127Z,101195.62
2019-01-23T16:43:06.262Z,101195.22
2019-01-23T16:45:35.642Z,101201.16
2019-01-23T16:48:04.825Z,101206.01
2019-01-23T16:50:33.893Z,101204.87
2019-01-23T16:53:03.041Z,101201.95
2019-01-23T16:55:32.165Z,101196.97
2019-01-23T16:58:01.330Z,101210.94
2019-01-23T17:00:30.415Z,101204.87
2019-01-23T17:03:00.348Z,101198.54
2019-01-23T17:05:30.673Z,101198.97
2019-01-23T17:08:01.118Z,101199.98
2019-01-23T17:10:30.300Z,101199.06
2019-01-23T17:12:59.394Z,101199.58
2019-01-23T17:15:28.503Z,101194.88
2019-01-23T17:17:57.656Z,101192.56
2019-01-23T17:20:35.384Z,101205.82
2019-01-23T17:23:04.471Z,101209.45
2019-01-23T17:25:33.608Z,101209.80
2019-01-23T17:28:02.755Z,101206.87
2019-01-23T17:30:31.867Z,101204.91
2019-01-23T17:33:00.966Z,101212.77
2019-01-23T17:35:30.125Z,101206.66
2019-01-23T17:37:59.566Z,101212.38
2019-01-23T17:40:28.793Z,101218.92
2019-01-23T17:42:57.952Z,101219.97
2019-01-23T17:45:29.231Z,101221.72
2019-01-23T17:47:58.531Z,101228.08
2019-01-23T17:50:27.721Z,101220.28
2019-01-23T17:52:56.814Z,101224.86
2019-01-23T17:55:36.865Z,101232.58
2019-01-23T17:58:07.778Z,101227.78
2019-01-23T18:00:39.785Z,101223.84
2019-01-23T18:03:08.886Z,101235.29
2019-01-23T18:05:37.977Z,101232.45
2019-01-23T18:08:07.107Z,101229.75
2019-01-23T18:10:36.241Z,101234.89
2019-01-23T18:13:05.456Z,101243.88
2019-01-23T18:15:34.829Z,101241.53
2019-01-23T18:18:03.973Z,101244.36
2019-01-23T18:20:33.101Z,101242.09
2019-01-23T18:23:02.191Z,101241.45
2019-01-23T18:25:31.352Z,101244.28
2019-01-23T18:28:00.431Z,101247.16
2019-01-23T18:30:33.212Z,101244.05
2019-01-23T18:33:03.296Z,101254.14
2019-01-23T18:36:07.238Z,101252.17
2019-01-23T18:38:54.111Z,101252.92
2019-01-23T18:42:07.409Z,101251.22
2019-01-23T18:44:57.322Z,101255.80
2019-01-23T18:48:01.273Z,101259.82
2019-01-23T18:51:09.023Z,101253.31
2019-01-23T18:53:38.157Z,101264.30
2019-01-23T18:56:07.286Z,101259.14
2019-01-23T18:58:36.391Z,101256.97
2019-01-23T19:01:05.535Z,101268.20
2019-01-23T19:03:34.749Z,101265.31
2019-01-23T19:06:03.841Z,101264.36
2019-01-23T19:08:32.949Z,101269.59
2019-01-23T19:11:02.056Z,101271.17
2019-01-23T19:13:31.171Z,101272.21
2019-01-23T19:16:00.284Z,101277.06
2019-01-23T19:18:29.391Z,101275.67
2019-01-23T19:20:58.544Z,101268.16
2019-01-23T19:23:27.625Z,101274.19
2019-01-23T19:25:56.734Z,101277.71
2019-01-23T19:28:25.855Z,101262.09
2019-01-23T19:30:54.954Z,101274.93
2019-01-23T19:33:24.096Z,101269.59
2019-01-23T19:35:53.235Z,101284.27
2019-01-23T19:38:22.328Z,101277.58
2019-01-23T19:40:51.462Z,101281.08
2019-01-23T19:43:20.961Z,101284.87
2019-01-23T19:45:50.086Z,101281.64
2019-01-23T19:48:19.299Z,101283.88
2019-01-23T19:50:48.459Z,101286.41
2019-01-23T19:53:17.584Z,101289.81
2019-01-23T19:55:46.676Z,101293.03
2019-01-23T19:58:15.779Z,101293.03
2019-01-23T20:00:44.948Z,101286.84
2019-01-23T20:03:20.245Z,101295.66
2019-01-23T20:05:44.919Z,101295.75
2019-01-23T20:08:14.047Z,101300.90
2019-01-23T20:10:43.115Z,101314.70
2019-01-23T20:13:12.264Z,101302.00
2019-01-23T20:15:41.408Z,101312.73
2019-01-23T20:18:11.269Z,101310.16
2019-01-23T20:20:40.400Z,101310.80
2019-01-23T20:23:09.554Z,101311.72
2019-01-23T20:25:38.800Z,101315.30
2019-01-23T20:28:10.121Z,101315.88
2019-01-23T20:30:41.171Z,101317.76
2019-01-23T20:33:10.354Z,101320.33
2019-01-23T20:35:39.469Z,101323.66
2019-01-23T20:38:08.541Z,101329.59
2019-01-23T20:40:37.752Z,101329.06
2019-01-23T20:43:07.625Z,101322.55
2019-01-23T20:45:36.817Z,101331.51
2019-01-23T20:48:07.729Z,101328.05
2019-01-23T20:50:36.892Z,101333.25
2019-01-23T20:53:06.233Z,101337.31
2019-01-23T20:55:35.466Z,101337.10
2019-01-23T20:58:04.582Z,101341.08
2019-01-23T21:00:34.106Z,101335.27
2019-01-23T21:03:03.210Z,101340.46
2019-01-23T21:05:32.349Z,101343.70
2019-01-23T21:08:01.525Z,101344.31
2019-01-23T21:10:30.631Z,101346.58
2019-01-23T21:12:59.768Z,101344.75
2019-01-23T21:15:32.700Z,101345.35
2019-01-23T21:18:02.626Z,101340.33
2019-01-23T21:20:34.258Z,101343.13
2019-01-23T21:23:03.350Z,101344.38
2019-01-23T21:25:32.535Z,101342.94
2019-01-23T21:28:01.687Z,101350.70
2019-01-23T21:30:30.866Z,101348.47
2019-01-23T21:33:00.008Z,101358.12
2019-01-23T21:35:29.076Z,101352.31
2019-01-23T21:37:58.194Z,101362.88
2019-01-23T21:40:29.839Z,101357.75
2019-01-23T21:42:58.979Z,101357.09
2019-01-23T21:45:28.334Z,101360.78
2019-01-23T21:47:57.629Z,101363.62
2019-01-23T21:50:26.711Z,101360.16
2019-01-23T21:52:55.834Z,101358.58
2019-01-23T21:55:25.041Z,101359.42
2019-01-23T21:57:54.205Z,101362.64
2019-01-23T22:00:28.786Z,101361.74
2019-01-23T22:02:59.604Z,101360.99
2019-01-23T22:05:28.715Z,101362.27
2019-01-23T22:07:57.808Z,101360.63
2019-01-23T22:10:27.834Z,101364.23
2019-01-23T22:12:57.000Z,101359.28
2019-01-23T22:15:26.486Z,101372.50
2019-01-23T22:17:55.572Z,101364.16
2019-01-23T22:20:24.713Z,101368.66
2019-01-23T22:22:53.934Z,101368.23
2019-01-23T22:25:24.185Z,101364.30
2019-01-23T22:27:53.498Z,101367.02
2019-01-23T22:30:30.033Z,101365.45
2019-01-23T22:32:59.094Z,101367.02
2019-01-23T22:35:28.191Z,101363.32
2019-01-23T22:37:57.317Z,101365.87
2019-01-23T22:40:26.401Z,101365.22
2019-01-23T22:42:55.532Z,101365.66
2019-01-23T22:45:24.744Z,101368.00
2019-01-23T22:47:53.909Z,101373.78
2019-01-23T22:50:25.163Z,101373.02
2019-01-23T22:52:54.283Z,101376.36
2019-01-23T22:55:23.364Z,101372.13
2019-01-23T22:57:52.421Z,101381.45
2019-01-23T23:00:46.269Z,101383.10
2019-01-23T23:03:17.776Z,101391.84
2019-01-23T23:05:46.956Z,101391.74
2019-01-23T23:08:16.187Z,101392.81
2019-01-23T23:10:45.325Z,101396.14
2019-01-23T23:13:14.361Z,101390.94
2019-01-23T23:15:43.488Z,101396.14
2019-01-23T23:18:12.619Z,101395.08
2019-01-23T23:20:41.684Z,101395.09
2019-01-23T23:23:10.793Z,101396.66
2019-01-23T23:25:39.971Z,101395.62
2019-01-23T23:28:09.046Z,101399.42
2019-01-23T23:30:38.114Z,101403.71
2019-01-23T23:33:07.650Z,101400.13
2019-01-23T23:35:36.843Z,101403.56
2019-01-23T23:38:06.021Z,101409.34
2019-01-23T23:40:35.123Z,101405.41
2019-01-23T23:43:04.171Z,101400.77
2019-01-23T23:45:33.337Z,101403.58
2019-01-23T23:48:02.417Z,101405.43
2019-01-23T23:50:31.695Z,101409.87
2019-01-23T23:53:00.880Z,101417.45
2019-01-23T23:55:29.996Z,101419.48
2019-01-23T23:57:59.109Z,101422.58
